RYR6XB LERS-EGGP
Flight info
| Callsign | RYR6XB |
|---|---|
| Flight time | 1h 56m |
| Altitude | 38000 |
| Route | NATPI DCT EVNAM DCT AGN DCT SECHE DCT UVELI DCT CNA DCT MANAK DCT MUREL DCT NOZHU/N0448F370 DCT SHIRI DCT TOJAQ DCT EPACE DCT ACCOP DCT MOCQO P16 PEPZE |
| Aircraft | B38M/M-SDE1FGHILORVWXY/HB1 |
Departure
| Time | 2026-05-05 16:51 |
|---|---|
| Airport | Reus Airport (LERS) |
Arrival
| Time | 2026-05-05 18:48 |
|---|---|
| Airport | Liverpool John Lennon Airport (EGGP) |
| Time | Latitude | Longitude | Altitude | Speed | Heading |
|---|---|---|---|---|---|
| 2026-05-05 16:18 | 41.14674 | 1.15625 | 246 ft | 0 kts | 339° |
| 2026-05-05 16:40 | 41.14672 | 1.15626 | 246 ft | 1 kts | 339° |
| 2026-05-05 16:41 | 41.14656 | 1.15634 | 246 ft | 3 kts | 339° |
| 2026-05-05 16:41 | 41.14638 | 1.15643 | 246 ft | 3 kts | 340° |
| 2026-05-05 16:41 | 41.14620 | 1.15647 | 246 ft | 3 kts | 13° |
| 2026-05-05 16:41 | 41.14604 | 1.15636 | 246 ft | 3 kts | 50° |
| 2026-05-05 16:42 | 41.14595 | 1.15616 | 246 ft | 2 kts | 68° |
| 2026-05-05 16:42 | 41.14593 | 1.15610 | 246 ft | 0 kts | 69° |
| 2026-05-05 16:45 | 41.14594 | 1.15615 | 246 ft | 2 kts | 69° |
| 2026-05-05 16:45 | 41.14607 | 1.15659 | 246 ft | 9 kts | 69° |
| 2026-05-05 16:45 | 41.14641 | 1.15777 | 246 ft | 18 kts | 69° |
| 2026-05-05 16:46 | 41.14699 | 1.15969 | 246 ft | 27 kts | 68° |
| 2026-05-05 16:46 | 41.14773 | 1.16224 | 246 ft | 31 kts | 69° |
| 2026-05-05 16:46 | 41.14851 | 1.16491 | 246 ft | 31 kts | 69° |
| 2026-05-05 16:46 | 41.14926 | 1.16749 | 246 ft | 30 kts | 68° |
| 2026-05-05 16:47 | 41.15001 | 1.17006 | 246 ft | 30 kts | 69° |
| 2026-05-05 16:47 | 41.15076 | 1.17263 | 246 ft | 29 kts | 68° |
| 2026-05-05 16:47 | 41.15149 | 1.17508 | 246 ft | 29 kts | 69° |
| 2026-05-05 16:47 | 41.15221 | 1.17753 | 246 ft | 28 kts | 68° |
| 2026-05-05 16:48 | 41.15288 | 1.17988 | 246 ft | 28 kts | 68° |
| 2026-05-05 16:48 | 41.15348 | 1.18193 | 246 ft | 21 kts | 70° |
| 2026-05-05 16:48 | 41.15343 | 1.18323 | 246 ft | 11 kts | 156° |
| 2026-05-05 16:48 | 41.15278 | 1.18328 | 246 ft | 9 kts | 205° |
| 2026-05-05 16:49 | 41.15235 | 1.18301 | 246 ft | 7 kts | 203° |
| 2026-05-05 16:49 | 41.15198 | 1.18281 | 246 ft | 3 kts | 229° |
| 2026-05-05 16:49 | 41.15188 | 1.18252 | 246 ft | 4 kts | 253° |
| 2026-05-05 16:49 | 41.15182 | 1.18229 | 246 ft | 1 kts | 248° |
| 2026-05-05 16:50 | 41.15177 | 1.18213 | 246 ft | 3 kts | 249° |
| 2026-05-05 16:50 | 41.15175 | 1.18205 | 246 ft | 0 kts | 249° |
| 2026-05-05 16:50 | 41.15170 | 1.18188 | 246 ft | 8 kts | 249° |
| 2026-05-05 16:50 | 41.15053 | 1.17789 | 246 ft | 86 kts | 249° |
| 2026-05-05 16:51 | 41.14746 | 1.16744 | 246 ft | 154 kts | 249° |
| 2026-05-05 16:51 | 41.14338 | 1.15306 | 764 ft | 167 kts | 251° |
| 2026-05-05 16:51 | 41.13860 | 1.13933 | 1677 ft | 165 kts | 236° |
| 2026-05-05 16:51 | 41.13206 | 1.12625 | 2341 ft | 177 kts | 236° |
| 2026-05-05 16:52 | 41.12494 | 1.11153 | 2764 ft | 203 kts | 237° |
| 2026-05-05 16:52 | 41.11704 | 1.09472 | 3276 ft | 225 kts | 238° |
| 2026-05-05 16:52 | 41.10855 | 1.07632 | 3874 ft | 244 kts | 238° |
| 2026-05-05 16:52 | 41.09950 | 1.05650 | 4607 ft | 256 kts | 239° |
| 2026-05-05 16:53 | 41.09031 | 1.03623 | 5600 ft | 257 kts | 239° |
| 2026-05-05 16:53 | 41.08111 | 1.01583 | 6566 ft | 259 kts | 239° |
| 2026-05-05 16:53 | 41.07195 | 0.99549 | 7467 ft | 261 kts | 239° |
| 2026-05-05 16:53 | 41.06260 | 0.97473 | 8371 ft | 264 kts | 239° |
| 2026-05-05 16:54 | 41.05314 | 0.95369 | 9274 ft | 267 kts | 239° |
| 2026-05-05 16:54 | 41.04357 | 0.93242 | 10121 ft | 271 kts | 239° |
| 2026-05-05 16:54 | 41.03507 | 0.90938 | 10550 ft | 289 kts | 255° |
| 2026-05-05 16:54 | 41.03481 | 0.88209 | 10925 ft | 311 kts | 281° |
| 2026-05-05 16:55 | 41.04432 | 0.85568 | 11458 ft | 329 kts | 306° |
| 2026-05-05 16:55 | 41.06273 | 0.83668 | 12056 ft | 347 kts | 333° |
| 2026-05-05 16:55 | 41.08665 | 0.83061 | 12889 ft | 359 kts | 359° |
| 2026-05-05 16:55 | 41.11121 | 0.83841 | 13610 ft | 370 kts | 22° |
| 2026-05-05 16:56 | 41.13490 | 0.85257 | 14249 ft | 376 kts | 20° |
| 2026-05-05 16:56 | 41.15941 | 0.86505 | 14934 ft | 380 kts | 18° |
| 2026-05-05 16:56 | 41.18453 | 0.87697 | 15656 ft | 384 kts | 17° |
| 2026-05-05 16:56 | 41.20993 | 0.88857 | 16305 ft | 388 kts | 16° |
| 2026-05-05 16:57 | 41.23569 | 0.90011 | 16926 ft | 393 kts | 16° |
| 2026-05-05 16:57 | 41.26183 | 0.91167 | 17581 ft | 397 kts | 15° |
| 2026-05-05 16:57 | 41.28825 | 0.92329 | 17980 ft | 402 kts | 15° |
| 2026-05-05 16:57 | 41.31481 | 0.93499 | 18255 ft | 402 kts | 15° |
| 2026-05-05 16:58 | 41.34108 | 0.94656 | 18627 ft | 404 kts | 16° |
| 2026-05-05 16:58 | 41.36683 | 0.96197 | 19173 ft | 410 kts | 32° |
| 2026-05-05 16:58 | 41.39031 | 0.98387 | 19700 ft | 414 kts | 33° |
| 2026-05-05 16:58 | 41.41596 | 1.00112 | 20193 ft | 413 kts | 13° |
| 2026-05-05 16:59 | 41.44427 | 1.00673 | 20711 ft | 412 kts | 1° |
| 2026-05-05 16:59 | 41.47303 | 1.01093 | 21158 ft | 418 kts | 4° |
| 2026-05-05 16:59 | 41.50192 | 1.01575 | 21697 ft | 421 kts | 4° |
| 2026-05-05 16:59 | 41.53119 | 1.02082 | 22193 ft | 425 kts | 4° |
| 2026-05-05 17:00 | 41.56064 | 1.02600 | 22698 ft | 428 kts | 4° |
| 2026-05-05 17:00 | 41.58997 | 1.03119 | 23181 ft | 432 kts | 4° |
| 2026-05-05 17:00 | 41.61997 | 1.03651 | 23637 ft | 435 kts | 4° |
| 2026-05-05 17:00 | 41.65016 | 1.04187 | 24040 ft | 439 kts | 4° |
| 2026-05-05 17:01 | 41.68050 | 1.04726 | 24462 ft | 441 kts | 4° |
| 2026-05-05 17:01 | 41.71108 | 1.05270 | 24883 ft | 444 kts | 4° |
| 2026-05-05 17:01 | 41.74178 | 1.05817 | 25283 ft | 446 kts | 4° |
| 2026-05-05 17:01 | 41.77268 | 1.06368 | 25679 ft | 449 kts | 5° |
| 2026-05-05 17:02 | 41.80375 | 1.06922 | 26072 ft | 452 kts | 5° |
| 2026-05-05 17:02 | 41.83491 | 1.07479 | 26473 ft | 454 kts | 5° |
| 2026-05-05 17:02 | 41.86642 | 1.08042 | 26857 ft | 457 kts | 5° |
| 2026-05-05 17:02 | 41.89801 | 1.08607 | 27242 ft | 459 kts | 5° |
| 2026-05-05 17:03 | 41.92985 | 1.09177 | 27608 ft | 462 kts | 5° |
| 2026-05-05 17:03 | 41.96138 | 1.09742 | 27960 ft | 464 kts | 5° |
| 2026-05-05 17:03 | 41.99352 | 1.10319 | 28319 ft | 467 kts | 5° |
| 2026-05-05 17:03 | 42.02583 | 1.10899 | 28661 ft | 470 kts | 5° |
| 2026-05-05 17:04 | 42.05835 | 1.11484 | 28985 ft | 473 kts | 6° |
| 2026-05-05 17:04 | 42.09102 | 1.12071 | 29308 ft | 475 kts | 5° |
| 2026-05-05 17:04 | 42.12399 | 1.12665 | 29628 ft | 478 kts | 5° |
| 2026-05-05 17:04 | 42.15704 | 1.13261 | 29945 ft | 481 kts | 5° |
| 2026-05-05 17:05 | 42.19030 | 1.13862 | 30250 ft | 483 kts | 5° |
| 2026-05-05 17:05 | 42.22363 | 1.14464 | 30523 ft | 485 kts | 5° |
| 2026-05-05 17:05 | 42.25725 | 1.15072 | 30764 ft | 488 kts | 5° |
| 2026-05-05 17:05 | 42.29102 | 1.15683 | 31013 ft | 491 kts | 5° |
| 2026-05-05 17:06 | 42.32493 | 1.16298 | 31282 ft | 493 kts | 5° |
| 2026-05-05 17:06 | 42.35908 | 1.16918 | 31509 ft | 496 kts | 5° |
| 2026-05-05 17:06 | 42.39337 | 1.17541 | 31770 ft | 498 kts | 5° |
| 2026-05-05 17:06 | 42.42780 | 1.18167 | 32014 ft | 500 kts | 5° |
| 2026-05-05 17:07 | 42.46247 | 1.18798 | 32275 ft | 502 kts | 5° |
| 2026-05-05 17:07 | 42.49715 | 1.19430 | 32590 ft | 502 kts | 5° |
| 2026-05-05 17:07 | 42.53181 | 1.20063 | 32833 ft | 503 kts | 5° |
| 2026-05-05 17:07 | 42.56651 | 1.20696 | 33135 ft | 504 kts | 5° |
| 2026-05-05 17:08 | 42.60127 | 1.21332 | 33421 ft | 504 kts | 5° |
| 2026-05-05 17:08 | 42.63604 | 1.21968 | 33792 ft | 504 kts | 5° |
| 2026-05-05 17:08 | 42.67080 | 1.22606 | 34057 ft | 504 kts | 5° |
| 2026-05-05 17:08 | 42.70556 | 1.23240 | 34329 ft | 503 kts | 4° |
| 2026-05-05 17:09 | 42.74020 | 1.23326 | 34644 ft | 494 kts | 349° |
| 2026-05-05 17:09 | 42.77384 | 1.22846 | 34927 ft | 493 kts | 351° |
| 2026-05-05 17:09 | 42.80801 | 1.22414 | 35148 ft | 492 kts | 350° |
| 2026-05-05 17:09 | 42.84209 | 1.21958 | 35374 ft | 491 kts | 350° |
| 2026-05-05 17:10 | 42.87602 | 1.21494 | 35687 ft | 490 kts | 350° |
| 2026-05-05 17:10 | 42.90996 | 1.21028 | 35978 ft | 489 kts | 350° |
| 2026-05-05 17:10 | 42.94375 | 1.20563 | 36302 ft | 487 kts | 350° |
| 2026-05-05 17:10 | 42.97749 | 1.20099 | 36574 ft | 485 kts | 350° |
| 2026-05-05 17:11 | 43.01102 | 1.19636 | 36897 ft | 484 kts | 350° |
| 2026-05-05 17:11 | 43.04452 | 1.19173 | 37149 ft | 483 kts | 349° |
| 2026-05-05 17:11 | 43.07795 | 1.18710 | 37416 ft | 482 kts | 349° |
| 2026-05-05 17:11 | 43.11130 | 1.18249 | 37657 ft | 481 kts | 349° |
| 2026-05-05 17:12 | 43.14448 | 1.17789 | 37901 ft | 479 kts | 349° |
| 2026-05-05 17:12 | 43.17768 | 1.17329 | 38009 ft | 480 kts | 349° |
| 2026-05-05 17:12 | 43.23315 | 1.16558 | 37962 ft | 484 kts | 349° |
| 2026-05-05 17:13 | 43.31113 | 1.15473 | 37967 ft | 484 kts | 350° |
| 2026-05-05 17:13 | 43.36733 | 1.14689 | 37968 ft | 483 kts | 350° |
| 2026-05-05 17:14 | 43.43423 | 1.13753 | 37970 ft | 483 kts | 350° |
| 2026-05-05 17:14 | 43.50076 | 1.12820 | 37965 ft | 483 kts | 350° |
| 2026-05-05 17:15 | 43.56774 | 1.11879 | 37972 ft | 483 kts | 349° |
| 2026-05-05 17:15 | 43.60031 | 1.10955 | 37941 ft | 473 kts | 334° |
| 2026-05-05 17:15 | 43.62952 | 1.08975 | 37978 ft | 464 kts | 324° |
| 2026-05-05 17:16 | 43.68562 | 1.04429 | 37965 ft | 468 kts | 324° |
| 2026-05-05 17:16 | 43.74136 | 0.99759 | 37960 ft | 468 kts | 324° |
| 2026-05-05 17:17 | 43.79668 | 0.95066 | 37960 ft | 469 kts | 324° |
| 2026-05-05 17:17 | 43.85224 | 0.90338 | 37947 ft | 470 kts | 324° |
| 2026-05-05 17:18 | 43.90947 | 0.85937 | 37954 ft | 474 kts | 330° |
| 2026-05-05 17:18 | 43.96929 | 0.82058 | 37952 ft | 475 kts | 330° |
| 2026-05-05 17:19 | 44.02932 | 0.78180 | 37960 ft | 475 kts | 331° |
| 2026-05-05 17:19 | 44.08930 | 0.74300 | 37966 ft | 475 kts | 331° |
| 2026-05-05 17:20 | 44.14930 | 0.70409 | 37972 ft | 475 kts | 331° |
| 2026-05-05 17:20 | 44.20927 | 0.66513 | 37969 ft | 475 kts | 331° |
| 2026-05-05 17:21 | 44.26886 | 0.62632 | 37968 ft | 476 kts | 331° |
| 2026-05-05 17:22 | 44.35883 | 0.56756 | 37961 ft | 476 kts | 331° |
| 2026-05-05 17:22 | 44.41887 | 0.52823 | 37950 ft | 477 kts | 331° |
| 2026-05-05 17:23 | 44.47899 | 0.48848 | 37937 ft | 477 kts | 331° |
| 2026-05-05 17:23 | 44.53913 | 0.44860 | 37944 ft | 478 kts | 331° |
| 2026-05-05 17:24 | 44.59925 | 0.40865 | 37945 ft | 478 kts | 331° |
| 2026-05-05 17:24 | 44.65941 | 0.36858 | 37934 ft | 478 kts | 331° |
| 2026-05-05 17:25 | 44.71908 | 0.32874 | 37943 ft | 478 kts | 331° |
| 2026-05-05 17:25 | 44.77914 | 0.28855 | 37940 ft | 477 kts | 331° |
| 2026-05-05 17:26 | 44.83916 | 0.24830 | 37938 ft | 477 kts | 331° |
| 2026-05-05 17:26 | 44.89910 | 0.20800 | 37933 ft | 477 kts | 331° |
| 2026-05-05 17:27 | 44.95901 | 0.16763 | 37936 ft | 477 kts | 331° |
| 2026-05-05 17:27 | 45.01891 | 0.12718 | 38051 ft | 475 kts | 332° |
| 2026-05-05 17:27 | 45.04855 | 0.10712 | 37949 ft | 471 kts | 332° |
| 2026-05-05 17:28 | 45.07805 | 0.08713 | 37917 ft | 469 kts | 332° |
| 2026-05-05 17:28 | 45.13672 | 0.04731 | 37930 ft | 471 kts | 332° |
| 2026-05-05 17:29 | 45.19571 | 0.00718 | 37926 ft | 470 kts | 332° |
| 2026-05-05 17:29 | 45.25480 | -0.03311 | 37923 ft | 470 kts | 332° |
| 2026-05-05 17:30 | 45.31375 | -0.07340 | 37922 ft | 470 kts | 332° |
| 2026-05-05 17:30 | 45.37275 | -0.11382 | 37916 ft | 470 kts | 332° |
| 2026-05-05 17:31 | 45.43164 | -0.15425 | 37917 ft | 470 kts | 332° |
| 2026-05-05 17:31 | 45.49033 | -0.19464 | 37912 ft | 470 kts | 332° |
| 2026-05-05 17:32 | 45.54933 | -0.23534 | 37912 ft | 471 kts | 332° |
| 2026-05-05 17:32 | 45.60829 | -0.27611 | 37915 ft | 471 kts | 332° |
| 2026-05-05 17:33 | 45.66634 | -0.31946 | 37890 ft | 468 kts | 321° |
| 2026-05-05 17:33 | 45.71745 | -0.37702 | 37886 ft | 468 kts | 320° |
| 2026-05-05 17:34 | 45.76875 | -0.43463 | 37910 ft | 468 kts | 320° |
| 2026-05-05 17:34 | 45.81967 | -0.49219 | 37899 ft | 468 kts | 320° |
| 2026-05-05 17:35 | 45.87080 | -0.55013 | 37897 ft | 468 kts | 320° |
| 2026-05-05 17:35 | 45.92192 | -0.60819 | 37898 ft | 468 kts | 320° |
| 2026-05-05 17:36 | 45.97296 | -0.66631 | 37900 ft | 468 kts | 320° |
| 2026-05-05 17:36 | 46.02395 | -0.72451 | 37901 ft | 468 kts | 320° |
| 2026-05-05 17:37 | 46.07494 | -0.78287 | 37903 ft | 468 kts | 320° |
| 2026-05-05 17:37 | 46.12593 | -0.84135 | 37903 ft | 468 kts | 320° |
| 2026-05-05 17:38 | 46.17682 | -0.89986 | 37905 ft | 468 kts | 320° |
| 2026-05-05 17:38 | 46.22914 | -0.95456 | 37904 ft | 469 kts | 331° |
| 2026-05-05 17:39 | 46.28666 | -0.99944 | 37904 ft | 470 kts | 330° |
| 2026-05-05 17:39 | 46.34417 | -1.04475 | 37902 ft | 470 kts | 330° |
| 2026-05-05 17:40 | 46.40167 | -1.09012 | 37900 ft | 470 kts | 330° |
| 2026-05-05 17:40 | 46.45915 | -1.13557 | 37890 ft | 470 kts | 330° |
| 2026-05-05 17:41 | 46.51670 | -1.18119 | 37885 ft | 470 kts | 330° |
| 2026-05-05 17:41 | 46.57413 | -1.22683 | 37882 ft | 470 kts | 330° |
| 2026-05-05 17:42 | 46.63157 | -1.27260 | 37887 ft | 471 kts | 330° |
| 2026-05-05 17:42 | 46.68872 | -1.31823 | 37883 ft | 471 kts | 330° |
| 2026-05-05 17:43 | 46.74604 | -1.36412 | 37887 ft | 471 kts | 330° |
| 2026-05-05 17:43 | 46.80350 | -1.41023 | 37887 ft | 471 kts | 330° |
| 2026-05-05 17:44 | 46.86092 | -1.45643 | 37875 ft | 471 kts | 330° |
| 2026-05-05 17:44 | 46.91834 | -1.50272 | 37883 ft | 471 kts | 330° |
| 2026-05-05 17:45 | 46.97580 | -1.54918 | 37887 ft | 471 kts | 330° |
| 2026-05-05 17:45 | 47.03325 | -1.59574 | 37884 ft | 471 kts | 330° |
| 2026-05-05 17:46 | 47.09038 | -1.64215 | 37886 ft | 472 kts | 330° |
| 2026-05-05 17:46 | 47.14772 | -1.68885 | 37885 ft | 472 kts | 330° |
| 2026-05-05 17:47 | 47.20511 | -1.73571 | 37882 ft | 472 kts | 330° |
| 2026-05-05 17:47 | 47.26250 | -1.78268 | 37885 ft | 471 kts | 330° |
| 2026-05-05 17:48 | 47.31976 | -1.82967 | 37887 ft | 471 kts | 330° |
| 2026-05-05 17:48 | 47.37706 | -1.87681 | 37908 ft | 471 kts | 330° |
| 2026-05-05 17:49 | 47.43396 | -1.92373 | 37908 ft | 470 kts | 330° |
| 2026-05-05 17:49 | 47.49104 | -1.97093 | 37911 ft | 470 kts | 330° |
| 2026-05-05 17:50 | 47.54806 | -2.01819 | 37907 ft | 469 kts | 330° |
| 2026-05-05 17:50 | 47.60498 | -2.06548 | 37911 ft | 469 kts | 330° |
| 2026-05-05 17:51 | 47.66188 | -2.11289 | 37918 ft | 469 kts | 330° |
| 2026-05-05 17:51 | 47.71880 | -2.16042 | 37923 ft | 469 kts | 330° |
| 2026-05-05 17:52 | 47.77564 | -2.20801 | 37924 ft | 469 kts | 330° |
| 2026-05-05 17:52 | 47.83254 | -2.25577 | 37928 ft | 469 kts | 330° |
| 2026-05-05 17:53 | 47.88942 | -2.30364 | 37927 ft | 470 kts | 330° |
| 2026-05-05 17:53 | 47.94600 | -2.35138 | 37930 ft | 470 kts | 330° |
| 2026-05-05 17:54 | 48.00294 | -2.39953 | 37933 ft | 470 kts | 330° |
| 2026-05-05 17:54 | 48.05991 | -2.44784 | 37939 ft | 470 kts | 330° |
| 2026-05-05 17:55 | 48.11684 | -2.49624 | 37954 ft | 470 kts | 330° |
| 2026-05-05 17:55 | 48.17373 | -2.54473 | 37942 ft | 470 kts | 330° |
| 2026-05-05 17:56 | 48.23047 | -2.59322 | 37942 ft | 469 kts | 330° |
| 2026-05-05 17:56 | 48.28709 | -2.64173 | 37944 ft | 468 kts | 330° |
| 2026-05-05 17:57 | 48.33410 | -2.68210 | 37946 ft | 467 kts | 330° |
| 2026-05-05 17:57 | 48.39957 | -2.73847 | 37941 ft | 467 kts | 330° |
| 2026-05-05 17:58 | 48.44674 | -2.77919 | 37941 ft | 466 kts | 330° |
| 2026-05-05 17:58 | 48.50292 | -2.82779 | 37940 ft | 465 kts | 330° |
| 2026-05-05 17:59 | 48.55903 | -2.87647 | 37938 ft | 464 kts | 330° |
| 2026-05-05 17:59 | 48.61459 | -2.92479 | 37941 ft | 464 kts | 330° |
| 2026-05-05 18:00 | 48.67058 | -2.97361 | 37944 ft | 464 kts | 330° |
| 2026-05-05 18:00 | 48.72649 | -3.02249 | 37948 ft | 463 kts | 330° |
| 2026-05-05 18:01 | 48.78245 | -3.07153 | 37963 ft | 463 kts | 330° |
| 2026-05-05 18:01 | 48.83810 | -3.12044 | 37966 ft | 463 kts | 330° |
| 2026-05-05 18:02 | 48.89390 | -3.16960 | 37965 ft | 462 kts | 330° |
| 2026-05-05 18:02 | 48.94917 | -3.21843 | 37965 ft | 462 kts | 330° |
| 2026-05-05 18:03 | 49.00476 | -3.26766 | 37964 ft | 462 kts | 330° |
| 2026-05-05 18:03 | 49.06040 | -3.31705 | 37967 ft | 463 kts | 329° |
| 2026-05-05 18:04 | 49.11606 | -3.36657 | 37961 ft | 462 kts | 329° |
| 2026-05-05 18:04 | 49.17128 | -3.41584 | 37967 ft | 462 kts | 329° |
| 2026-05-05 18:05 | 49.22690 | -3.46558 | 37976 ft | 463 kts | 329° |
| 2026-05-05 18:05 | 49.28250 | -3.51543 | 37965 ft | 463 kts | 329° |
| 2026-05-05 18:06 | 49.33944 | -3.56092 | 37973 ft | 461 kts | 341° |
| 2026-05-05 18:06 | 49.39975 | -3.59513 | 37968 ft | 462 kts | 339° |
| 2026-05-05 18:07 | 49.46005 | -3.62963 | 37965 ft | 462 kts | 339° |
| 2026-05-05 18:07 | 49.51999 | -3.66397 | 37968 ft | 462 kts | 339° |
| 2026-05-05 18:08 | 49.58018 | -3.69854 | 37968 ft | 462 kts | 339° |
| 2026-05-05 18:08 | 49.64040 | -3.73321 | 37969 ft | 461 kts | 339° |
| 2026-05-05 18:09 | 49.70184 | -3.75986 | 37953 ft | 459 kts | 358° |
| 2026-05-05 18:09 | 49.76580 | -3.75535 | 37960 ft | 462 kts | 3° |
| 2026-05-05 18:10 | 49.82992 | -3.74856 | 37966 ft | 462 kts | 4° |
| 2026-05-05 18:10 | 49.89418 | -3.74105 | 37963 ft | 462 kts | 4° |
| 2026-05-05 18:11 | 49.95789 | -3.73350 | 37965 ft | 462 kts | 4° |
| 2026-05-05 18:11 | 50.02215 | -3.72586 | 37965 ft | 462 kts | 4° |
| 2026-05-05 18:12 | 50.08634 | -3.71821 | 37966 ft | 462 kts | 4° |
| 2026-05-05 18:12 | 50.15054 | -3.71053 | 37963 ft | 462 kts | 4° |
| 2026-05-05 18:13 | 50.21469 | -3.70284 | 37960 ft | 462 kts | 4° |
| 2026-05-05 18:13 | 50.27887 | -3.69513 | 37964 ft | 462 kts | 4° |
| 2026-05-05 18:14 | 50.34256 | -3.68744 | 37964 ft | 462 kts | 4° |
| 2026-05-05 18:14 | 50.40674 | -3.67953 | 37962 ft | 462 kts | 6° |
| 2026-05-05 18:15 | 50.47068 | -3.66813 | 37964 ft | 463 kts | 6° |
| 2026-05-05 18:15 | 50.53470 | -3.65587 | 37967 ft | 463 kts | 6° |
| 2026-05-05 18:16 | 50.59873 | -3.64367 | 37969 ft | 463 kts | 6° |
| 2026-05-05 18:16 | 50.66275 | -3.63144 | 37970 ft | 464 kts | 6° |
| 2026-05-05 18:17 | 50.72684 | -3.61917 | 37968 ft | 464 kts | 6° |
| 2026-05-05 18:17 | 50.79054 | -3.60694 | 37967 ft | 464 kts | 6° |
| 2026-05-05 18:18 | 50.85454 | -3.59462 | 37966 ft | 463 kts | 6° |
| 2026-05-05 18:18 | 50.91871 | -3.58223 | 37970 ft | 463 kts | 6° |
| 2026-05-05 18:19 | 50.98280 | -3.56989 | 37969 ft | 463 kts | 5° |
| 2026-05-05 18:19 | 51.04712 | -3.56125 | 37976 ft | 464 kts | 4° |
| 2026-05-05 18:20 | 51.11147 | -3.55227 | 37980 ft | 464 kts | 4° |
| 2026-05-05 18:20 | 51.17576 | -3.54321 | 37987 ft | 464 kts | 4° |
| 2026-05-05 18:21 | 51.23964 | -3.53420 | 37985 ft | 464 kts | 4° |
| 2026-05-05 18:21 | 51.30393 | -3.52509 | 37990 ft | 464 kts | 4° |
| 2026-05-05 18:22 | 51.36827 | -3.51595 | 37992 ft | 463 kts | 4° |
| 2026-05-05 18:22 | 51.43242 | -3.50681 | 37994 ft | 462 kts | 4° |
| 2026-05-05 18:23 | 51.49601 | -3.49773 | 37778 ft | 454 kts | 4° |
| 2026-05-05 18:23 | 51.52761 | -3.49320 | 36865 ft | 458 kts | 4° |
| 2026-05-05 18:23 | 51.55953 | -3.48863 | 36025 ft | 461 kts | 4° |
| 2026-05-05 18:23 | 51.59141 | -3.48405 | 35421 ft | 458 kts | 4° |
| 2026-05-05 18:24 | 51.62264 | -3.47955 | 34802 ft | 456 kts | 4° |
| 2026-05-05 18:24 | 51.65421 | -3.47501 | 34211 ft | 453 kts | 4° |
| 2026-05-05 18:24 | 51.68547 | -3.47050 | 33602 ft | 450 kts | 4° |
| 2026-05-05 18:24 | 51.71651 | -3.46604 | 33018 ft | 445 kts | 4° |
| 2026-05-05 18:25 | 51.74720 | -3.46159 | 32489 ft | 440 kts | 4° |
| 2026-05-05 18:25 | 51.76734 | -3.45868 | 32156 ft | 437 kts | 4° |
| 2026-05-05 18:25 | 51.80756 | -3.45285 | 31471 ft | 431 kts | 4° |
| 2026-05-05 18:25 | 51.83733 | -3.44853 | 30954 ft | 428 kts | 4° |
| 2026-05-05 18:26 | 51.86689 | -3.44423 | 30447 ft | 425 kts | 4° |
| 2026-05-05 18:26 | 51.89626 | -3.43996 | 29921 ft | 422 kts | 4° |
| 2026-05-05 18:26 | 51.92547 | -3.43571 | 29336 ft | 419 kts | 4° |
| 2026-05-05 18:26 | 51.95435 | -3.43149 | 28834 ft | 415 kts | 4° |
| 2026-05-05 18:27 | 51.98296 | -3.42731 | 28347 ft | 411 kts | 4° |
| 2026-05-05 18:27 | 52.01128 | -3.42317 | 27868 ft | 407 kts | 4° |
| 2026-05-05 18:27 | 52.03906 | -3.41910 | 27389 ft | 403 kts | 4° |
| 2026-05-05 18:27 | 52.06689 | -3.41501 | 26912 ft | 400 kts | 3° |
| 2026-05-05 18:28 | 52.12209 | -3.40690 | 25979 ft | 395 kts | 3° |
| 2026-05-05 18:28 | 52.14941 | -3.40289 | 25518 ft | 393 kts | 3° |
| 2026-05-05 18:28 | 52.17653 | -3.39889 | 25072 ft | 391 kts | 3° |
| 2026-05-05 18:29 | 52.20356 | -3.39490 | 24636 ft | 389 kts | 3° |
| 2026-05-05 18:29 | 52.23052 | -3.39092 | 24194 ft | 388 kts | 3° |
| 2026-05-05 18:29 | 52.25734 | -3.38696 | 23758 ft | 386 kts | 3° |
| 2026-05-05 18:29 | 52.28402 | -3.38300 | 23286 ft | 385 kts | 3° |
| 2026-05-05 18:30 | 52.31062 | -3.37905 | 22811 ft | 382 kts | 3° |
| 2026-05-05 18:30 | 52.33700 | -3.37514 | 22391 ft | 379 kts | 3° |
| 2026-05-05 18:30 | 52.36310 | -3.37126 | 21984 ft | 375 kts | 3° |
| 2026-05-05 18:30 | 52.38907 | -3.36739 | 21578 ft | 372 kts | 3° |
| 2026-05-05 18:31 | 52.41474 | -3.36357 | 21181 ft | 369 kts | 3° |
| 2026-05-05 18:31 | 52.43995 | -3.35981 | 20796 ft | 366 kts | 3° |
| 2026-05-05 18:31 | 52.46525 | -3.35603 | 20410 ft | 364 kts | 3° |
| 2026-05-05 18:31 | 52.49035 | -3.35228 | 20019 ft | 361 kts | 3° |
| 2026-05-05 18:32 | 52.51526 | -3.34855 | 19651 ft | 358 kts | 3° |
| 2026-05-05 18:32 | 52.54002 | -3.34484 | 19280 ft | 356 kts | 3° |
| 2026-05-05 18:32 | 52.56456 | -3.34116 | 18910 ft | 354 kts | 3° |
| 2026-05-05 18:32 | 52.58912 | -3.33747 | 18534 ft | 351 kts | 3° |
| 2026-05-05 18:33 | 52.61344 | -3.33382 | 18147 ft | 349 kts | 3° |
| 2026-05-05 18:33 | 52.63727 | -3.32670 | 17625 ft | 353 kts | 17° |
| 2026-05-05 18:33 | 52.66025 | -3.31293 | 17239 ft | 350 kts | 18° |
| 2026-05-05 18:33 | 52.68310 | -3.29947 | 16826 ft | 348 kts | 18° |
| 2026-05-05 18:34 | 52.70583 | -3.28598 | 16401 ft | 347 kts | 18° |
| 2026-05-05 18:34 | 52.72848 | -3.27249 | 15964 ft | 346 kts | 18° |
| 2026-05-05 18:34 | 52.75108 | -3.25900 | 15526 ft | 345 kts | 18° |
| 2026-05-05 18:34 | 52.77369 | -3.24548 | 15093 ft | 344 kts | 18° |
| 2026-05-05 18:35 | 52.79622 | -3.23199 | 14664 ft | 344 kts | 18° |
| 2026-05-05 18:35 | 52.81870 | -3.21852 | 14208 ft | 344 kts | 18° |
| 2026-05-05 18:35 | 52.84121 | -3.20501 | 13736 ft | 344 kts | 18° |
| 2026-05-05 18:35 | 52.86372 | -3.19149 | 13235 ft | 344 kts | 18° |
| 2026-05-05 18:36 | 52.88602 | -3.17821 | 12781 ft | 335 kts | 15° |
| 2026-05-05 18:36 | 52.90819 | -3.17275 | 12313 ft | 321 kts | 359° |
| 2026-05-05 18:36 | 52.93025 | -3.17122 | 11938 ft | 314 kts | 1° |
| 2026-05-05 18:36 | 52.95211 | -3.16943 | 11556 ft | 306 kts | 1° |
| 2026-05-05 18:37 | 52.97317 | -3.16775 | 11177 ft | 300 kts | 1° |
| 2026-05-05 18:37 | 52.99341 | -3.16142 | 10818 ft | 296 kts | 22° |
| 2026-05-05 18:37 | 53.00973 | -3.14223 | 10626 ft | 291 kts | 46° |
| 2026-05-05 18:37 | 53.02164 | -3.11517 | 10304 ft | 291 kts | 54° |
| 2026-05-05 18:38 | 53.03266 | -3.08710 | 9976 ft | 290 kts | 54° |
| 2026-05-05 18:38 | 53.04359 | -3.05911 | 9654 ft | 288 kts | 55° |
| 2026-05-05 18:38 | 53.05449 | -3.03127 | 9341 ft | 285 kts | 54° |
| 2026-05-05 18:38 | 53.06528 | -3.00374 | 9010 ft | 283 kts | 55° |
| 2026-05-05 18:39 | 53.07603 | -2.97650 | 8700 ft | 280 kts | 55° |
| 2026-05-05 18:39 | 53.08677 | -2.94962 | 8398 ft | 278 kts | 54° |
| 2026-05-05 18:39 | 53.09752 | -2.92302 | 8068 ft | 274 kts | 55° |
| 2026-05-05 18:39 | 53.10879 | -2.89770 | 7537 ft | 271 kts | 50° |
| 2026-05-05 18:40 | 53.12079 | -2.87365 | 7175 ft | 267 kts | 50° |
| 2026-05-05 18:40 | 53.13271 | -2.85036 | 6802 ft | 269 kts | 50° |
| 2026-05-05 18:40 | 53.14497 | -2.82680 | 6411 ft | 269 kts | 50° |
| 2026-05-05 18:40 | 53.15713 | -2.80369 | 6004 ft | 262 kts | 50° |
| 2026-05-05 18:41 | 53.16896 | -2.78115 | 5597 ft | 255 kts | 50° |
| 2026-05-05 18:41 | 53.18045 | -2.75917 | 5201 ft | 248 kts | 50° |
| 2026-05-05 18:41 | 53.19169 | -2.73765 | 4813 ft | 245 kts | 50° |
| 2026-05-05 18:41 | 53.20281 | -2.71617 | 4499 ft | 244 kts | 50° |
| 2026-05-05 18:42 | 53.21384 | -2.69454 | 4160 ft | 244 kts | 50° |
| 2026-05-05 18:42 | 53.22475 | -2.67291 | 3856 ft | 244 kts | 50° |
| 2026-05-05 18:42 | 53.23553 | -2.65116 | 3584 ft | 241 kts | 50° |
| 2026-05-05 18:42 | 53.24589 | -2.63006 | 3356 ft | 230 kts | 50° |
| 2026-05-05 18:43 | 53.25699 | -2.61188 | 3120 ft | 220 kts | 28° |
| 2026-05-05 18:43 | 53.27122 | -2.60589 | 2960 ft | 209 kts | 2° |
| 2026-05-05 18:43 | 53.28553 | -2.60682 | 2834 ft | 201 kts | 358° |
| 2026-05-05 18:43 | 53.29904 | -2.60818 | 2695 ft | 189 kts | 358° |
| 2026-05-05 18:44 | 53.31184 | -2.60959 | 2539 ft | 180 kts | 355° |
| 2026-05-05 18:44 | 53.31961 | -2.61366 | 2392 ft | 179 kts | 330° |
| 2026-05-05 18:44 | 53.32779 | -2.62927 | 2262 ft | 182 kts | 303° |
| 2026-05-05 18:44 | 53.33365 | -2.64807 | 2208 ft | 181 kts | 300° |
| 2026-05-05 18:45 | 53.34014 | -2.67329 | 2030 ft | 177 kts | 287° |
| 2026-05-05 18:45 | 53.34111 | -2.69334 | 1832 ft | 166 kts | 271° |
| 2026-05-05 18:45 | 53.34050 | -2.70574 | 1695 ft | 155 kts | 269° |
| 2026-05-05 18:45 | 53.33950 | -2.72340 | 1500 ft | 150 kts | 270° |
| 2026-05-05 18:46 | 53.33864 | -2.74067 | 1263 ft | 148 kts | 270° |
| 2026-05-05 18:46 | 53.33792 | -2.75776 | 1037 ft | 146 kts | 270° |
| 2026-05-05 18:46 | 53.33720 | -2.77451 | 833 ft | 143 kts | 270° |
| 2026-05-05 18:46 | 53.33637 | -2.79155 | 661 ft | 149 kts | 269° |
| 2026-05-05 18:47 | 53.33549 | -2.80865 | 442 ft | 146 kts | 269° |
| 2026-05-05 18:47 | 53.33476 | -2.82546 | 226 ft | 143 kts | 269° |
| 2026-05-05 18:47 | 53.33401 | -2.84176 | 92 ft | 131 kts | 266° |
| 2026-05-05 18:47 | 53.33344 | -2.85388 | 93 ft | 83 kts | 265° |
| 2026-05-05 18:48 | 53.33308 | -2.86168 | 93 ft | 44 kts | 265° |
| 2026-05-05 18:48 | 53.33340 | -2.86402 | 93 ft | 18 kts | 327° |
| 2026-05-05 18:48 | 53.33452 | -2.86409 | 94 ft | 15 kts | 38° |
| 2026-05-05 18:48 | 53.33470 | -2.86281 | 93 ft | 12 kts | 85° |
| 2026-05-05 18:49 | 53.33478 | -2.86125 | 91 ft | 15 kts | 85° |
| 2026-05-05 18:49 | 53.33488 | -2.85957 | 93 ft | 11 kts | 73° |
| 2026-05-05 18:49 | 53.33534 | -2.85934 | 91 ft | 7 kts | 356° |
| 2026-05-05 18:49 | 53.33588 | -2.85920 | 95 ft | 8 kts | 43° |
| 2026-05-05 18:50 | 53.33597 | -2.85833 | 95 ft | 8 kts | 85° |
| 2026-05-05 18:50 | 53.33615 | -2.85794 | 93 ft | 3 kts | 5° |
| 2026-05-05 18:50 | 53.33639 | -2.85792 | 91 ft | 2 kts | 354° |
| 2026-05-05 18:50 | 53.33649 | -2.85794 | 91 ft | 0 kts | 354° |